sensor_id;sensor_type;location;lat;lon;timestamp;temperature;humidity
20483;DHT22;10400;53.198;6.592;2023-06-22T00:00:55;19.60;99.90
20483;DHT22;10400;53.198;6.592;2023-06-22T00:03:22;19.50;99.90
20483;DHT22;10400;53.198;6.592;2023-06-22T00:05:48;19.50;99.90
20483;DHT22;10400;53.198;6.592;2023-06-22T00:08:15;19.40;99.90
20483;DHT22;10400;53.198;6.592;2023-06-22T00:10:42;19.50;99.90
20483;DHT22;10400;53.198;6.592;2023-06-22T00:13:09;19.40;99.90
20483;DHT22;10400;53.198;6.592;2023-06-22T00:15:35;19.40;99.90
20483;DHT22;10400;53.198;6.592;2023-06-22T00:18:02;19.30;99.90
20483;DHT22;10400;53.198;6.592;2023-06-22T00:20:28;19.20;99.90
20483;DHT22;10400;53.198;6.592;2023-06-22T00:22:54;19.20;99.90
20483;DHT22;10400;53.198;6.592;2023-06-22T00:25:20;19.20;99.90
20483;DHT22;10400;53.198;6.592;2023-06-22T00:27:46;19.20;99.90
20483;DHT22;10400;53.198;6.592;2023-06-22T00:30:12;19.20;99.90
20483;DHT22;10400;53.198;6.592;2023-06-22T00:32:38;19.20;99.90
20483;DHT22;10400;53.198;6.592;2023-06-22T00:35:04;19.20;99.90
20483;DHT22;10400;53.198;6.592;2023-06-22T00:37:30;19.20;99.90
20483;DHT22;10400;53.198;6.592;2023-06-22T00:39:56;19.20;99.90
20483;DHT22;10400;53.198;6.592;2023-06-22T00:42:22;19.10;99.90
20483;DHT22;10400;53.198;6.592;2023-06-22T00:44:48;19.10;99.90
20483;DHT22;10400;53.198;6.592;2023-06-22T00:47:16;19.10;99.90
20483;DHT22;10400;53.198;6.592;2023-06-22T00:49:43;19.00;99.90
20483;DHT22;10400;53.198;6.592;2023-06-22T00:52:10;19.00;99.90
20483;DHT22;10400;53.198;6.592;2023-06-22T00:54:42;18.90;99.90
20483;DHT22;10400;53.198;6.592;2023-06-22T00:57:12;18.90;99.90
20483;DHT22;10400;53.198;6.592;2023-06-22T00:59:42;18.90;99.90
20483;DHT22;10400;53.198;6.592;2023-06-22T01:02:08;18.90;99.90
20483;DHT22;10400;53.198;6.592;2023-06-22T01:04:36;18.90;99.90
20483;DHT22;10400;53.198;6.592;2023-06-22T01:10:32;18.90;99.90
20483;DHT22;10400;53.198;6.592;2023-06-22T01:13:18;18.80;99.90
20483;DHT22;10400;53.198;6.592;2023-06-22T01:15:55;18.80;99.90
20483;DHT22;10400;53.198;6.592;2023-06-22T01:18:22;18.80;99.90
20483;DHT22;10400;53.198;6.592;2023-06-22T01:20:52;18.70;99.90
20483;DHT22;10400;53.198;6.592;2023-06-22T01:26:12;18.70;99.90
20483;DHT22;10400;53.198;6.592;2023-06-22T01:28:49;18.70;99.90
20483;DHT22;10400;53.198;6.592;2023-06-22T01:31:26;18.70;99.90
20483;DHT22;10400;53.198;6.592;2023-06-22T01:33:57;18.70;99.90
20483;DHT22;10400;53.198;6.592;2023-06-22T01:36:24;18.70;99.90
20483;DHT22;10400;53.198;6.592;2023-06-22T01:38:50;18.60;99.90
20483;DHT22;10400;53.198;6.592;2023-06-22T01:41:18;18.60;99.90
20483;DHT22;10400;53.198;6.592;2023-06-22T01:43:45;18.60;99.90
20483;DHT22;10400;53.198;6.592;2023-06-22T01:46:11;18.50;99.90
20483;DHT22;10400;53.198;6.592;2023-06-22T01:48:38;18.50;99.90
20483;DHT22;10400;53.198;6.592;2023-06-22T01:51:04;18.50;99.90
20483;DHT22;10400;53.198;6.592;2023-06-22T01:53:30;18.50;99.90
20483;DHT22;10400;53.198;6.592;2023-06-22T01:55:56;18.50;99.90
20483;DHT22;10400;53.198;6.592;2023-06-22T01:58:26;18.50;99.90
20483;DHT22;10400;53.198;6.592;2023-06-22T02:01:25;18.50;99.90
20483;DHT22;10400;53.198;6.592;2023-06-22T02:04:11;18.40;99.90
20483;DHT22;10400;53.198;6.592;2023-06-22T02:06:39;18.50;99.90
20483;DHT22;10400;53.198;6.592;2023-06-22T02:09:15;18.50;99.90
20483;DHT22;10400;53.198;6.592;2023-06-22T02:11:43;18.40;99.90
20483;DHT22;10400;53.198;6.592;2023-06-22T02:14:10;18.40;99.90
20483;DHT22;10400;53.198;6.592;2023-06-22T02:16:36;18.40;99.90
20483;DHT22;10400;53.198;6.592;2023-06-22T02:19:03;18.30;99.90
20483;DHT22;10400;53.198;6.592;2023-06-22T02:21:29;18.30;99.90
20483;DHT22;10400;53.198;6.592;2023-06-22T02:23:56;18.20;99.90
20483;DHT22;10400;53.198;6.592;2023-06-22T02:26:22;18.30;99.90
20483;DHT22;10400;53.198;6.592;2023-06-22T02:28:49;18.30;99.90
20483;DHT22;10400;53.198;6.592;2023-06-22T02:31:14;18.20;99.90
20483;DHT22;10400;53.198;6.592;2023-06-22T02:33:40;18.20;99.90
20483;DHT22;10400;53.198;6.592;2023-06-22T02:36:06;18.20;99.90
20483;DHT22;10400;53.198;6.592;2023-06-22T02:38:37;18.20;99.90
20483;DHT22;10400;53.198;6.592;2023-06-22T02:41:03;18.20;99.90
20483;DHT22;10400;53.198;6.592;2023-06-22T02:43:28;18.20;99.90
20483;DHT22;10400;53.198;6.592;2023-06-22T02:45:54;18.20;99.90
20483;DHT22;10400;53.198;6.592;2023-06-22T02:48:20;18.20;99.90
20483;DHT22;10400;53.198;6.592;2023-06-22T02:50:46;18.20;99.90
20483;DHT22;10400;53.198;6.592;2023-06-22T02:53:11;18.10;99.90
20483;DHT22;10400;53.198;6.592;2023-06-22T02:55:37;18.20;99.90
20483;DHT22;10400;53.198;6.592;2023-06-22T02:58:05;18.20;99.90
20483;DHT22;10400;53.198;6.592;2023-06-22T03:00:31;18.20;99.90
20483;DHT22;10400;53.198;6.592;2023-06-22T03:02:57;18.10;99.90
20483;DHT22;10400;53.198;6.592;2023-06-22T03:05:24;18.10;99.90
20483;DHT22;10400;53.198;6.592;2023-06-22T03:07:49;18.10;99.90
20483;DHT22;10400;53.198;6.592;2023-06-22T03:10:16;18.00;99.90
20483;DHT22;10400;53.198;6.592;2023-06-22T03:12:43;18.00;99.90
20483;DHT22;10400;53.198;6.592;2023-06-22T03:15:11;17.90;99.90
20483;DHT22;10400;53.198;6.592;2023-06-22T03:17:37;18.00;99.90
20483;DHT22;10400;53.198;6.592;2023-06-22T03:20:07;18.00;99.90
20483;DHT22;10400;53.198;6.592;2023-06-22T03:22:40;18.00;99.90
20483;DHT22;10400;53.198;6.592;2023-06-22T03:25:07;18.00;99.90
20483;DHT22;10400;53.198;6.592;2023-06-22T03:27:38;18.00;99.90
20483;DHT22;10400;53.198;6.592;2023-06-22T03:30:05;17.90;99.90
20483;DHT22;10400;53.198;6.592;2023-06-22T03:32:31;18.00;99.90
20483;DHT22;10400;53.198;6.592;2023-06-22T03:34:56;18.00;99.90
20483;DHT22;10400;53.198;6.592;2023-06-22T03:37:24;18.00;99.90
20483;DHT22;10400;53.198;6.592;2023-06-22T03:39:51;18.00;99.90
20483;DHT22;10400;53.198;6.592;2023-06-22T03:42:16;18.00;99.90
20483;DHT22;10400;53.198;6.592;2023-06-22T03:44:42;18.00;99.90
20483;DHT22;10400;53.198;6.592;2023-06-22T03:47:07;18.00;99.90
20483;DHT22;10400;53.198;6.592;2023-06-22T03:49:34;18.10;99.90
20483;DHT22;10400;53.198;6.592;2023-06-22T03:52:01;18.10;99.90
20483;DHT22;10400;53.198;6.592;2023-06-22T03:54:31;18.00;99.90
20483;DHT22;10400;53.198;6.592;2023-06-22T03:56:57;18.00;99.90
20483;DHT22;10400;53.198;6.592;2023-06-22T03:59:24;18.10;99.90
20483;DHT22;10400;53.198;6.592;2023-06-22T04:01:50;18.10;99.90
20483;DHT22;10400;53.198;6.592;2023-06-22T04:04:17;18.10;99.90
20483;DHT22;10400;53.198;6.592;2023-06-22T04:06:42;18.20;99.90
20483;DHT22;10400;53.198;6.592;2023-06-22T04:09:08;18.20;99.90
20483;DHT22;10400;53.198;6.592;2023-06-22T04:11:34;18.20;99.90
20483;DHT22;10400;53.198;6.592;2023-06-22T04:13:59;18.20;99.90
20483;DHT22;10400;53.198;6.592;2023-06-22T04:16:25;18.20;99.90
20483;DHT22;10400;53.198;6.592;2023-06-22T04:18:51;18.20;99.90
20483;DHT22;10400;53.198;6.592;2023-06-22T04:21:16;18.20;99.90
20483;DHT22;10400;53.198;6.592;2023-06-22T04:23:42;18.30;99.90
20483;DHT22;10400;53.198;6.592;2023-06-22T04:26:09;18.30;99.90
20483;DHT22;10400;53.198;6.592;2023-06-22T04:28:34;18.40;99.90
20483;DHT22;10400;53.198;6.592;2023-06-22T04:31:02;18.30;99.90
20483;DHT22;10400;53.198;6.592;2023-06-22T04:33:28;18.30;99.90
20483;DHT22;10400;53.198;6.592;2023-06-22T04:35:58;18.30;99.90
20483;DHT22;10400;53.198;6.592;2023-06-22T04:38:26;18.40;99.90
20483;DHT22;10400;53.198;6.592;2023-06-22T04:40:52;18.40;99.90
20483;DHT22;10400;53.198;6.592;2023-06-22T04:43:19;18.50;99.90
20483;DHT22;10400;53.198;6.592;2023-06-22T04:45:44;18.60;99.90
20483;DHT22;10400;53.198;6.592;2023-06-22T04:48:10;18.80;99.90
20483;DHT22;10400;53.198;6.592;2023-06-22T04:50:41;18.80;99.90
20483;DHT22;10400;53.198;6.592;2023-06-22T04:53:07;18.90;99.90
20483;DHT22;10400;53.198;6.592;2023-06-22T04:55:38;18.90;99.90
20483;DHT22;10400;53.198;6.592;2023-06-22T04:58:07;18.90;99.90
20483;DHT22;10400;53.198;6.592;2023-06-22T05:00:32;18.90;99.90
20483;DHT22;10400;53.198;6.592;2023-06-22T05:03:01;18.90;99.90
20483;DHT22;10400;53.198;6.592;2023-06-22T05:05:29;19.00;99.90
20483;DHT22;10400;53.198;6.592;2023-06-22T05:07:56;19.20;99.90
20483;DHT22;10400;53.198;6.592;2023-06-22T05:10:25;19.20;99.90
20483;DHT22;10400;53.198;6.592;2023-06-22T05:12:51;19.30;99.90
20483;DHT22;10400;53.198;6.592;2023-06-22T05:15:16;19.40;99.90
20483;DHT22;10400;53.198;6.592;2023-06-22T05:17:44;19.50;99.90
20483;DHT22;10400;53.198;6.592;2023-06-22T05:20:11;19.60;99.90
20483;DHT22;10400;53.198;6.592;2023-06-22T05:22:41;19.70;99.90
20483;DHT22;10400;53.198;6.592;2023-06-22T05:25:09;19.70;99.90
20483;DHT22;10400;53.198;6.592;2023-06-22T05:27:35;19.80;99.90
20483;DHT22;10400;53.198;6.592;2023-06-22T05:30:06;19.90;99.90
20483;DHT22;10400;53.198;6.592;2023-06-22T05:32:32;20.00;99.90
20483;DHT22;10400;53.198;6.592;2023-06-22T05:34:58;20.10;99.90
20483;DHT22;10400;53.198;6.592;2023-06-22T05:37:23;20.10;99.90
20483;DHT22;10400;53.198;6.592;2023-06-22T05:39:49;20.10;99.90
20483;DHT22;10400;53.198;6.592;2023-06-22T05:42:15;20.10;99.90
20483;DHT22;10400;53.198;6.592;2023-06-22T05:44:40;20.30;99.90
20483;DHT22;10400;53.198;6.592;2023-06-22T05:47:06;20.30;99.90
20483;DHT22;10400;53.198;6.592;2023-06-22T05:49:32;20.40;99.90
20483;DHT22;10400;53.198;6.592;2023-06-22T05:51:58;20.50;99.90
20483;DHT22;10400;53.198;6.592;2023-06-22T05:54:25;20.50;99.90
20483;DHT22;10400;53.198;6.592;2023-06-22T05:56:50;20.30;99.90
20483;DHT22;10400;53.198;6.592;2023-06-22T05:59:17;20.40;99.90
20483;DHT22;10400;53.198;6.592;2023-06-22T06:01:42;20.30;99.90
20483;DHT22;10400;53.198;6.592;2023-06-22T06:04:08;20.50;99.90
20483;DHT22;10400;53.198;6.592;2023-06-22T06:06:34;20.60;99.90
20483;DHT22;10400;53.198;6.592;2023-06-22T06:09:03;20.80;99.90
20483;DHT22;10400;53.198;6.592;2023-06-22T06:11:29;20.80;99.90
20483;DHT22;10400;53.198;6.592;2023-06-22T06:13:55;20.90;99.90
20483;DHT22;10400;53.198;6.592;2023-06-22T06:16:21;21.00;99.90
20483;DHT22;10400;53.198;6.592;2023-06-22T06:18:47;21.00;99.90
20483;DHT22;10400;53.198;6.592;2023-06-22T06:21:15;21.20;99.90
20483;DHT22;10400;53.198;6.592;2023-06-22T06:23:40;21.30;99.90
20483;DHT22;10400;53.198;6.592;2023-06-22T06:26:06;21.40;99.90
20483;DHT22;10400;53.198;6.592;2023-06-22T06:28:32;21.60;99.90
20483;DHT22;10400;53.198;6.592;2023-06-22T06:30:58;21.70;99.90
20483;DHT22;10400;53.198;6.592;2023-06-22T06:33:24;21.80;99.90
20483;DHT22;10400;53.198;6.592;2023-06-22T06:35:50;21.70;99.90
20483;DHT22;10400;53.198;6.592;2023-06-22T06:38:15;21.80;99.90
20483;DHT22;10400;53.198;6.592;2023-06-22T06:40:41;21.80;99.90
20483;DHT22;10400;53.198;6.592;2023-06-22T06:43:07;21.80;99.90
20483;DHT22;10400;53.198;6.592;2023-06-22T06:45:32;21.80;98.80
20483;DHT22;10400;53.198;6.592;2023-06-22T06:48:00;21.80;99.90
20483;DHT22;10400;53.198;6.592;2023-06-22T06:50:26;21.90;99.90
20483;DHT22;10400;53.198;6.592;2023-06-22T06:52:51;22.00;99.90
20483;DHT22;10400;53.198;6.592;2023-06-22T06:55:17;22.00;92.80
20483;DHT22;10400;53.198;6.592;2023-06-22T06:57:44;21.90;67.00
20483;DHT22;10400;53.198;6.592;2023-06-22T07:00:14;22.10;70.10
20483;DHT22;10400;53.198;6.592;2023-06-22T07:02:42;22.20;76.20
20483;DHT22;10400;53.198;6.592;2023-06-22T07:05:08;22.40;66.40
20483;DHT22;10400;53.198;6.592;2023-06-22T07:07:34;22.40;51.60
20483;DHT22;10400;53.198;6.592;2023-06-22T07:10:00;22.30;49.50
20483;DHT22;10400;53.198;6.592;2023-06-22T07:12:26;22.40;45.80
20483;DHT22;10400;53.198;6.592;2023-06-22T07:14:52;22.60;29.70
20483;DHT22;10400;53.198;6.592;2023-06-22T07:17:18;22.60;7.80
20483;DHT22;10400;53.198;6.592;2023-06-22T07:19:44;22.70;2.80
20483;DHT22;10400;53.198;6.592;2023-06-22T07:22:09;22.80;8.20
20483;DHT22;10400;53.198;6.592;2023-06-22T07:24:35;22.90;1.00
20483;DHT22;10400;53.198;6.592;2023-06-22T07:27:01;23.10;1.00
20483;DHT22;10400;53.198;6.592;2023-06-22T07:29:27;23.10;1.00
20483;DHT22;10400;53.198;6.592;2023-06-22T07:31:53;23.10;1.00
20483;DHT22;10400;53.198;6.592;2023-06-22T07:34:19;23.00;1.00
20483;DHT22;10400;53.198;6.592;2023-06-22T07:36:45;22.90;1.00
20483;DHT22;10400;53.198;6.592;2023-06-22T07:39:11;23.00;1.00
20483;DHT22;10400;53.198;6.592;2023-06-22T07:41:39;22.80;1.00
20483;DHT22;10400;53.198;6.592;2023-06-22T07:44:06;22.90;1.00
20483;DHT22;10400;53.198;6.592;2023-06-22T07:46:32;22.80;1.00
20483;DHT22;10400;53.198;6.592;2023-06-22T07:48:57;22.90;1.00
20483;DHT22;10400;53.198;6.592;2023-06-22T07:51:23;23.00;1.00
20483;DHT22;10400;53.198;6.592;2023-06-22T07:53:49;23.20;1.00
20483;DHT22;10400;53.198;6.592;2023-06-22T07:56:15;23.30;1.00
20483;DHT22;10400;53.198;6.592;2023-06-22T07:58:45;23.20;1.00
20483;DHT22;10400;53.198;6.592;2023-06-22T08:01:12;23.30;1.00
20483;DHT22;10400;53.198;6.592;2023-06-22T08:03:37;23.20;1.00
20483;DHT22;10400;53.198;6.592;2023-06-22T08:06:05;23.30;1.00
20483;DHT22;10400;53.198;6.592;2023-06-22T08:08:31;23.30;1.00
20483;DHT22;10400;53.198;6.592;2023-06-22T08:10:57;23.30;1.00
20483;DHT22;10400;53.198;6.592;2023-06-22T08:13:22;23.30;1.00
20483;DHT22;10400;53.198;6.592;2023-06-22T08:15:48;23.40;1.00
20483;DHT22;10400;53.198;6.592;2023-06-22T08:18:13;23.40;1.00
20483;DHT22;10400;53.198;6.592;2023-06-22T08:20:40;23.60;1.00
20483;DHT22;10400;53.198;6.592;2023-06-22T08:23:05;23.70;1.00
20483;DHT22;10400;53.198;6.592;2023-06-22T08:25:35;23.50;1.00
20483;DHT22;10400;53.198;6.592;2023-06-22T08:28:01;23.80;1.00
20483;DHT22;10400;53.198;6.592;2023-06-22T08:30:27;23.70;99.90
20483;DHT22;10400;53.198;6.592;2023-06-22T08:32:53;23.90;1.00
20483;DHT22;10400;53.198;6.592;2023-06-22T08:35:24;24.00;99.90
20483;DHT22;10400;53.198;6.592;2023-06-22T08:37:50;24.10;99.90
20483;DHT22;10400;53.198;6.592;2023-06-22T08:40:20;24.10;1.00
20483;DHT22;10400;53.198;6.592;2023-06-22T08:42:46;24.20;99.90
20483;DHT22;10400;53.198;6.592;2023-06-22T08:45:13;24.30;1.00
20483;DHT22;10400;53.198;6.592;2023-06-22T08:47:39;24.40;1.00
20483;DHT22;10400;53.198;6.592;2023-06-22T08:50:07;24.60;68.60
20483;DHT22;10400;53.198;6.592;2023-06-22T08:52:34;24.60;99.90
20483;DHT22;10400;53.198;6.592;2023-06-22T08:55:00;24.70;99.90
20483;DHT22;10400;53.198;6.592;2023-06-22T08:57:26;24.70;99.90
20483;DHT22;10400;53.198;6.592;2023-06-22T08:59:52;24.30;99.90
20483;DHT22;10400;53.198;6.592;2023-06-22T09:02:18;24.50;1.00
20483;DHT22;10400;53.198;6.592;2023-06-22T09:04:46;24.90;99.90
20483;DHT22;10400;53.198;6.592;2023-06-22T09:07:11;25.00;1.00
20483;DHT22;10400;53.198;6.592;2023-06-22T09:09:37;24.80;1.00
20483;DHT22;10400;53.198;6.592;2023-06-22T09:12:03;25.00;99.90
20483;DHT22;10400;53.198;6.592;2023-06-22T09:14:29;25.00;1.00
20483;DHT22;10400;53.198;6.592;2023-06-22T09:16:54;24.90;1.00
20483;DHT22;10400;53.198;6.592;2023-06-22T09:19:20;25.00;1.00
20483;DHT22;10400;53.198;6.592;2023-06-22T09:21:46;24.90;99.90
20483;DHT22;10400;53.198;6.592;2023-06-22T09:24:11;24.80;1.00
20483;DHT22;10400;53.198;6.592;2023-06-22T09:26:37;24.90;8.90
20483;DHT22;10400;53.198;6.592;2023-06-22T09:29:05;25.10;99.90
20483;DHT22;10400;53.198;6.592;2023-06-22T09:31:31;25.30;1.00
20483;DHT22;10400;53.198;6.592;2023-06-22T09:33:57;24.80;69.30
20483;DHT22;10400;53.198;6.592;2023-06-22T09:36:22;25.00;99.90
20483;DHT22;10400;53.198;6.592;2023-06-22T09:38:49;25.20;99.90
20483;DHT22;10400;53.198;6.592;2023-06-22T09:41:20;25.00;1.00
20483;DHT22;10400;53.198;6.592;2023-06-22T09:43:46;24.90;1.00
20483;DHT22;10400;53.198;6.592;2023-06-22T09:46:12;25.00;1.00
20483;DHT22;10400;53.198;6.592;2023-06-22T09:48:38;25.30;99.90
20483;DHT22;10400;53.198;6.592;2023-06-22T09:51:04;25.50;99.90
20483;DHT22;10400;53.198;6.592;2023-06-22T09:53:29;25.50;99.90
20483;DHT22;10400;53.198;6.592;2023-06-22T09:55:55;25.50;1.00
20483;DHT22;10400;53.198;6.592;2023-06-22T09:58:20;25.60;1.00
20483;DHT22;10400;53.198;6.592;2023-06-22T10:00:46;25.70;99.90
20483;DHT22;10400;53.198;6.592;2023-06-22T10:03:12;25.80;1.00
20483;DHT22;10400;53.198;6.592;2023-06-22T10:05:37;25.80;1.00
20483;DHT22;10400;53.198;6.592;2023-06-22T10:08:03;26.10;99.90
20483;DHT22;10400;53.198;6.592;2023-06-22T10:10:29;26.10;1.00
20483;DHT22;10400;53.198;6.592;2023-06-22T10:12:56;26.00;99.90
20483;DHT22;10400;53.198;6.592;2023-06-22T10:15:23;25.80;99.90
20483;DHT22;10400;53.198;6.592;2023-06-22T10:17:49;26.10;1.00
20483;DHT22;10400;53.198;6.592;2023-06-22T10:20:15;26.20;3.30
20483;DHT22;10400;53.198;6.592;2023-06-22T10:22:42;26.20;1.00
20483;DHT22;10400;53.198;6.592;2023-06-22T10:25:09;26.20;1.00
20483;DHT22;10400;53.198;6.592;2023-06-22T10:27:35;26.30;1.00
20483;DHT22;10400;53.198;6.592;2023-06-22T10:30:01;26.30;1.00
20483;DHT22;10400;53.198;6.592;2023-06-22T10:32:27;26.20;99.90
20483;DHT22;10400;53.198;6.592;2023-06-22T10:34:54;26.40;99.90
20483;DHT22;10400;53.198;6.592;2023-06-22T10:37:20;26.30;1.00
20483;DHT22;10400;53.198;6.592;2023-06-22T10:39:45;26.40;1.00
20483;DHT22;10400;53.198;6.592;2023-06-22T10:42:12;26.70;99.90
20483;DHT22;10400;53.198;6.592;2023-06-22T10:44:37;26.60;99.90
20483;DHT22;10400;53.198;6.592;2023-06-22T10:47:04;26.60;1.00
20483;DHT22;10400;53.198;6.592;2023-06-22T10:49:30;26.00;1.00
20483;DHT22;10400;53.198;6.592;2023-06-22T10:51:56;26.10;1.00
20483;DHT22;10400;53.198;6.592;2023-06-22T10:54:21;26.10;99.90
20483;DHT22;10400;53.198;6.592;2023-06-22T10:56:47;26.00;1.00
20483;DHT22;10400;53.198;6.592;2023-06-22T10:59:12;26.20;1.00
20483;DHT22;10400;53.198;6.592;2023-06-22T11:01:38;26.30;16.00
20483;DHT22;10400;53.198;6.592;2023-06-22T11:04:04;26.40;1.00
20483;DHT22;10400;53.198;6.592;2023-06-22T11:06:30;26.60;99.90
20483;DHT22;10400;53.198;6.592;2023-06-22T11:08:55;26.70;74.30
20483;DHT22;10400;53.198;6.592;2023-06-22T11:11:21;26.40;99.90
20483;DHT22;10400;53.198;6.592;2023-06-22T11:13:46;26.40;1.00
20483;DHT22;10400;53.198;6.592;2023-06-22T11:16:12;26.60;1.00
20483;DHT22;10400;53.198;6.592;2023-06-22T11:18:38;26.80;1.00
20483;DHT22;10400;53.198;6.592;2023-06-22T11:21:03;27.10;99.90
20483;DHT22;10400;53.198;6.592;2023-06-22T11:23:29;27.30;99.90
20483;DHT22;10400;53.198;6.592;2023-06-22T11:25:55;27.50;99.90
20483;DHT22;10400;53.198;6.592;2023-06-22T11:28:21;27.60;99.90
20483;DHT22;10400;53.198;6.592;2023-06-22T11:30:46;27.10;99.90
20483;DHT22;10400;53.198;6.592;2023-06-22T11:33:12;26.90;1.00
20483;DHT22;10400;53.198;6.592;2023-06-22T11:35:37;27.00;99.90
20483;DHT22;10400;53.198;6.592;2023-06-22T11:38:03;26.70;99.90
20483;DHT22;10400;53.198;6.592;2023-06-22T11:40:30;26.80;99.90
20483;DHT22;10400;53.198;6.592;2023-06-22T11:42:56;26.70;99.90
20483;DHT22;10400;53.198;6.592;2023-06-22T11:45:21;26.80;99.90
20483;DHT22;10400;53.198;6.592;2023-06-22T11:47:47;27.00;99.90
20483;DHT22;10400;53.198;6.592;2023-06-22T11:50:13;27.10;99.90
20483;DHT22;10400;53.198;6.592;2023-06-22T11:52:39;27.30;99.90
20483;DHT22;10400;53.198;6.592;2023-06-22T11:55:05;27.00;99.90
20483;DHT22;10400;53.198;6.592;2023-06-22T11:57:36;27.10;99.90
20483;DHT22;10400;53.198;6.592;2023-06-22T12:00:03;27.10;99.90
20483;DHT22;10400;53.198;6.592;2023-06-22T12:02:50;27.30;99.90
20483;DHT22;10400;53.198;6.592;2023-06-22T12:05:18;27.20;99.90
20483;DHT22;10400;53.198;6.592;2023-06-22T12:07:44;27.00;1.00
20483;DHT22;10400;53.198;6.592;2023-06-22T12:10:10;27.10;1.00
20483;DHT22;10400;53.198;6.592;2023-06-22T12:12:35;27.00;1.00
20483;DHT22;10400;53.198;6.592;2023-06-22T12:15:01;26.80;1.00
20483;DHT22;10400;53.198;6.592;2023-06-22T12:17:29;26.70;1.00
20483;DHT22;10400;53.198;6.592;2023-06-22T12:19:55;26.80;1.00
20483;DHT22;10400;53.198;6.592;2023-06-22T12:22:21;26.70;1.00
20483;DHT22;10400;53.198;6.592;2023-06-22T12:24:47;26.60;1.00
20483;DHT22;10400;53.198;6.592;2023-06-22T12:27:12;26.60;1.00
20483;DHT22;10400;53.198;6.592;2023-06-22T12:29:41;26.70;1.00
20483;DHT22;10400;53.198;6.592;2023-06-22T12:32:07;26.70;1.00
20483;DHT22;10400;53.198;6.592;2023-06-22T12:34:33;26.60;1.00
20483;DHT22;10400;53.198;6.592;2023-06-22T12:36:59;26.70;1.00
20483;DHT22;10400;53.198;6.592;2023-06-22T12:39:24;26.60;1.00
20483;DHT22;10400;53.198;6.592;2023-06-22T12:41:50;26.50;1.00
20483;DHT22;10400;53.198;6.592;2023-06-22T12:44:16;26.40;1.00
20483;DHT22;10400;53.198;6.592;2023-06-22T12:46:41;26.20;1.00
20483;DHT22;10400;53.198;6.592;2023-06-22T12:49:07;26.20;1.00
20483;DHT22;10400;53.198;6.592;2023-06-22T12:51:32;26.10;1.00
20483;DHT22;10400;53.198;6.592;2023-06-22T12:53:59;26.10;1.00
20483;DHT22;10400;53.198;6.592;2023-06-22T12:56:24;26.10;1.00
20483;DHT22;10400;53.198;6.592;2023-06-22T12:58:50;26.00;1.00
20483;DHT22;10400;53.198;6.592;2023-06-22T13:01:16;26.20;1.00
20483;DHT22;10400;53.198;6.592;2023-06-22T13:03:43;26.10;1.00
20483;DHT22;10400;53.198;6.592;2023-06-22T13:06:09;26.00;1.00
20483;DHT22;10400;53.198;6.592;2023-06-22T13:08:34;25.80;1.00
20483;DHT22;10400;53.198;6.592;2023-06-22T13:11:00;25.50;1.00
20483;DHT22;10400;53.198;6.592;2023-06-22T13:13:25;25.60;1.00
20483;DHT22;10400;53.198;6.592;2023-06-22T13:15:53;25.60;1.00
20483;DHT22;10400;53.198;6.592;2023-06-22T13:18:19;25.60;1.00
20483;DHT22;10400;53.198;6.592;2023-06-22T13:20:45;25.60;1.00
20483;DHT22;10400;53.198;6.592;2023-06-22T13:23:11;25.60;1.00
20483;DHT22;10400;53.198;6.592;2023-06-22T13:25:36;25.20;1.00
20483;DHT22;10400;53.198;6.592;2023-06-22T13:28:02;25.20;1.00
20483;DHT22;10400;53.198;6.592;2023-06-22T13:30:28;25.10;1.00
20483;DHT22;10400;53.198;6.592;2023-06-22T13:32:54;25.10;1.00
20483;DHT22;10400;53.198;6.592;2023-06-22T13:35:20;25.20;1.00
20483;DHT22;10400;53.198;6.592;2023-06-22T13:37:45;25.40;1.00
20483;DHT22;10400;53.198;6.592;2023-06-22T13:40:11;24.80;1.00
20483;DHT22;10400;53.198;6.592;2023-06-22T13:42:37;24.70;1.00
20483;DHT22;10400;53.198;6.592;2023-06-22T13:45:03;24.60;1.00
20483;DHT22;10400;53.198;6.592;2023-06-22T13:47:29;24.70;1.00
20483;DHT22;10400;53.198;6.592;2023-06-22T13:49:55;24.80;1.00
20483;DHT22;10400;53.198;6.592;2023-06-22T13:52:21;24.60;1.00
20483;DHT22;10400;53.198;6.592;2023-06-22T13:54:46;24.60;1.00
20483;DHT22;10400;53.198;6.592;2023-06-22T13:57:12;24.60;1.00
20483;DHT22;10400;53.198;6.592;2023-06-22T13:59:38;24.60;1.00
20483;DHT22;10400;53.198;6.592;2023-06-22T14:02:03;24.70;1.00
20483;DHT22;10400;53.198;6.592;2023-06-22T14:04:29;24.50;1.00
20483;DHT22;10400;53.198;6.592;2023-06-22T14:06:55;24.40;1.00
20483;DHT22;10400;53.198;6.592;2023-06-22T14:09:21;24.40;1.00
20483;DHT22;10400;53.198;6.592;2023-06-22T14:11:47;24.40;1.00
20483;DHT22;10400;53.198;6.592;2023-06-22T14:14:12;24.40;1.00
20483;DHT22;10400;53.198;6.592;2023-06-22T14:16:38;24.40;1.00
20483;DHT22;10400;53.198;6.592;2023-06-22T14:19:03;24.30;1.00
20483;DHT22;10400;53.198;6.592;2023-06-22T14:21:29;24.30;1.00
20483;DHT22;10400;53.198;6.592;2023-06-22T14:23:55;24.30;1.00
20483;DHT22;10400;53.198;6.592;2023-06-22T14:26:20;24.40;1.00
20483;DHT22;10400;53.198;6.592;2023-06-22T14:28:47;24.30;1.00
20483;DHT22;10400;53.198;6.592;2023-06-22T14:31:18;24.30;1.00
20483;DHT22;10400;53.198;6.592;2023-06-22T14:33:46;24.10;1.00
20483;DHT22;10400;53.198;6.592;2023-06-22T14:36:12;24.00;1.00
20483;DHT22;10400;53.198;6.592;2023-06-22T14:38:38;24.10;1.00
20483;DHT22;10400;53.198;6.592;2023-06-22T14:41:04;23.80;1.00
20483;DHT22;10400;53.198;6.592;2023-06-22T14:43:30;23.70;1.00
20483;DHT22;10400;53.198;6.592;2023-06-22T14:45:55;23.60;1.00
20483;DHT22;10400;53.198;6.592;2023-06-22T14:48:21;23.50;1.00
20483;DHT22;10400;53.198;6.592;2023-06-22T14:50:46;23.50;1.00
20483;DHT22;10400;53.198;6.592;2023-06-22T14:53:12;23.70;1.00
20483;DHT22;10400;53.198;6.592;2023-06-22T14:55:39;23.70;1.00
20483;DHT22;10400;53.198;6.592;2023-06-22T14:58:05;23.70;1.00
20483;DHT22;10400;53.198;6.592;2023-06-22T15:00:31;23.80;1.00
20483;DHT22;10400;53.198;6.592;2023-06-22T15:02:56;23.70;1.00
20483;DHT22;10400;53.198;6.592;2023-06-22T15:05:22;23.30;1.00
20483;DHT22;10400;53.198;6.592;2023-06-22T15:07:49;23.40;1.00
20483;DHT22;10400;53.198;6.592;2023-06-22T15:10:15;23.50;1.00
20483;DHT22;10400;53.198;6.592;2023-06-22T15:12:41;23.50;1.00
20483;DHT22;10400;53.198;6.592;2023-06-22T15:15:07;23.60;1.00
20483;DHT22;10400;53.198;6.592;2023-06-22T15:17:33;23.40;1.00
20483;DHT22;10400;53.198;6.592;2023-06-22T15:19:59;23.30;1.00
20483;DHT22;10400;53.198;6.592;2023-06-22T15:22:24;23.20;1.00
20483;DHT22;10400;53.198;6.592;2023-06-22T15:24:50;23.20;1.00
20483;DHT22;10400;53.198;6.592;2023-06-22T15:27:19;23.00;1.00
20483;DHT22;10400;53.198;6.592;2023-06-22T15:29:45;23.00;1.00
20483;DHT22;10400;53.198;6.592;2023-06-22T15:32:11;23.00;1.00
20483;DHT22;10400;53.198;6.592;2023-06-22T15:34:37;23.00;1.00
20483;DHT22;10400;53.198;6.592;2023-06-22T15:37:03;23.10;1.00
20483;DHT22;10400;53.198;6.592;2023-06-22T15:39:29;23.10;1.00